createdAt,value
2017-01-28T00:00:40.373Z,1043.61
2017-01-28T00:01:40.354Z,1043.65
2017-01-28T00:02:40.337Z,1043.62
2017-01-28T00:03:40.319Z,1043.58
2017-01-28T00:04:40.302Z,1043.56
2017-01-28T00:05:40.283Z,1043.59
2017-01-28T00:06:40.265Z,1043.59
2017-01-28T00:07:40.248Z,1043.56
2017-01-28T00:08:40.228Z,1043.55
2017-01-28T00:09:40.210Z,1043.56
2017-01-28T00:10:40.194Z,1043.58
2017-01-28T00:11:40.177Z,1043.56
2017-01-28T00:12:40.158Z,1043.55
2017-01-28T00:13:40.142Z,1043.55
2017-01-28T00:14:40.123Z,1043.53
2017-01-28T00:15:40.105Z,1043.56
2017-01-28T00:16:40.086Z,1043.54
2017-01-28T00:17:40.068Z,1043.52
2017-01-28T00:18:40.050Z,1043.55
2017-01-28T00:19:40.032Z,1043.57
2017-01-28T00:20:40.014Z,1043.61
2017-01-28T00:21:39.998Z,1043.6
2017-01-28T00:22:39.979Z,1043.62
2017-01-28T00:23:39.960Z,1043.59
2017-01-28T00:24:39.943Z,1043.63
2017-01-28T00:25:39.925Z,1043.63
2017-01-28T00:26:39.907Z,1043.62
2017-01-28T00:27:39.889Z,1043.61
2017-01-28T00:28:39.870Z,1043.57
2017-01-28T00:29:39.853Z,1043.61
2017-01-28T00:30:39.840Z,1043.57
2017-01-28T00:31:39.817Z,1043.58
2017-01-28T00:32:39.799Z,1043.58
2017-01-28T00:33:39.781Z,1043.55
2017-01-28T00:34:39.764Z,1043.53
2017-01-28T00:35:39.744Z,1043.55
2017-01-28T00:36:39.726Z,1043.48
2017-01-28T00:37:39.709Z,1043.49
2017-01-28T00:38:39.691Z,1043.53
2017-01-28T00:39:39.672Z,1043.48
2017-01-28T00:40:39.654Z,1043.52
2017-01-28T00:41:39.636Z,1043.51
2017-01-28T00:42:39.619Z,1043.5
2017-01-28T00:43:39.601Z,1043.53
2017-01-28T00:44:39.583Z,1043.51
2017-01-28T00:45:39.564Z,1043.48
2017-01-28T00:46:39.547Z,1043.41
2017-01-28T00:47:39.528Z,1043.42
2017-01-28T00:48:39.512Z,1043.41
2017-01-28T00:49:39.493Z,1043.41
2017-01-28T00:50:39.475Z,1043.35
2017-01-28T00:51:39.458Z,1043.33
2017-01-28T00:52:39.438Z,1043.37
2017-01-28T00:53:39.421Z,1043.38
2017-01-28T00:54:39.403Z,1043.34
2017-01-28T00:55:39.386Z,1043.35
2017-01-28T00:56:39.367Z,1043.34
2017-01-28T00:57:39.354Z,1043.33
2017-01-28T00:58:39.331Z,1043.39
2017-01-28T00:59:39.313Z,1043.37
2017-01-28T01:00:39.299Z,1043.37
2017-01-28T01:01:39.276Z,1043.4
2017-01-28T01:02:39.260Z,1043.39
2017-01-28T01:03:39.242Z,1043.42
2017-01-28T01:04:39.221Z,1043.4
2017-01-28T01:05:39.203Z,1043.45
2017-01-28T01:06:39.188Z,1043.42
2017-01-28T01:07:39.167Z,1043.43
2017-01-28T01:08:39.148Z,1043.4
2017-01-28T01:09:39.132Z,1043.45
2017-01-28T01:10:39.115Z,1043.45
2017-01-28T01:11:39.096Z,1043.51
2017-01-28T01:12:39.078Z,1043.48
2017-01-28T01:13:39.059Z,1043.5
2017-01-28T01:14:39.042Z,1043.52
2017-01-28T01:15:39.024Z,1043.51
2017-01-28T01:16:39.004Z,1043.5
2017-01-28T01:17:38.987Z,1043.45
2017-01-28T01:18:38.970Z,1043.44
2017-01-28T01:19:38.950Z,1043.46
2017-01-28T01:20:38.933Z,1043.44
2017-01-28T01:21:38.914Z,1043.47
2017-01-28T01:22:38.895Z,1043.46
2017-01-28T01:23:38.879Z,1043.48
2017-01-28T01:24:38.861Z,1043.47
2017-01-28T01:25:38.841Z,1043.48
2017-01-28T01:26:38.824Z,1043.52
2017-01-28T01:27:38.806Z,1043.55
2017-01-28T01:28:38.788Z,1043.55
2017-01-28T01:29:38.768Z,1043.58
2017-01-28T01:30:38.752Z,1043.58
2017-01-28T01:31:38.733Z,1043.6
2017-01-28T01:32:38.715Z,1043.64
2017-01-28T01:33:38.697Z,1043.62
2017-01-28T01:34:38.677Z,1043.63
2017-01-28T01:35:38.661Z,1043.61
2017-01-28T01:36:38.641Z,1043.61
2017-01-28T01:37:38.623Z,1043.6
2017-01-28T01:38:38.605Z,1043.59
2017-01-28T01:39:38.587Z,1043.58
2017-01-28T01:40:38.568Z,1043.58
2017-01-28T01:41:38.551Z,1043.61
2017-01-28T01:42:38.532Z,1043.59
2017-01-28T01:43:38.514Z,1043.62
2017-01-28T01:44:38.496Z,1043.66
2017-01-28T01:45:38.478Z,1043.68
2017-01-28T01:46:38.460Z,1043.7
2017-01-28T01:47:38.440Z,1043.71
2017-01-28T01:48:38.423Z,1043.72
2017-01-28T01:49:38.404Z,1043.71
2017-01-28T01:50:38.388Z,1043.7
2017-01-28T01:51:38.368Z,1043.7
2017-01-28T01:52:38.350Z,1043.67
2017-01-28T01:53:38.360Z,1043.64
2017-01-28T01:54:38.313Z,1043.65
2017-01-28T01:55:38.295Z,1043.65
2017-01-28T01:56:38.277Z,1043.67
2017-01-28T01:57:38.263Z,1043.68
2017-01-28T01:58:38.238Z,1043.67
2017-01-28T01:59:38.224Z,1043.66
2017-01-28T02:00:38.202Z,1043.64
2017-01-28T02:01:38.184Z,1043.64
2017-01-28T02:02:38.166Z,1043.62
2017-01-28T02:03:38.149Z,1043.62
2017-01-28T02:04:38.130Z,1043.66
2017-01-28T02:05:38.110Z,1043.59
2017-01-28T02:06:38.094Z,1043.6
2017-01-28T02:07:38.075Z,1043.63
2017-01-28T02:08:38.058Z,1043.62
2017-01-28T02:09:38.038Z,1043.6
2017-01-28T02:10:38.039Z,1043.61
2017-01-28T02:11:38.003Z,1043.6
2017-01-28T02:12:37.985Z,1043.6
2017-01-28T02:13:37.965Z,1043.52
2017-01-28T02:14:37.947Z,1043.57
2017-01-28T02:15:37.929Z,1043.53
2017-01-28T02:16:37.911Z,1043.47
2017-01-28T02:17:37.894Z,1043.48
2017-01-28T02:18:37.876Z,1043.48
2017-01-28T02:19:37.857Z,1043.45
2017-01-28T02:20:37.839Z,1043.44
2017-01-28T02:21:37.821Z,1043.46
2017-01-28T02:22:37.803Z,1043.47
2017-01-28T02:23:37.784Z,1043.44
2017-01-28T02:24:37.766Z,1043.43
2017-01-28T02:25:37.748Z,1043.41
2017-01-28T02:26:37.730Z,1043.35
2017-01-28T02:27:37.712Z,1043.33
2017-01-28T02:28:37.696Z,1043.35
2017-01-28T02:29:37.676Z,1043.29
2017-01-28T02:30:37.657Z,1043.33
2017-01-28T02:31:37.639Z,1043.33
2017-01-28T02:32:37.620Z,1043.33
2017-01-28T02:33:37.603Z,1043.33
2017-01-28T02:34:37.585Z,1043.3
2017-01-28T02:35:37.565Z,1043.3
2017-01-28T02:36:37.547Z,1043.31
2017-01-28T02:37:37.529Z,1043.3
2017-01-28T02:38:37.511Z,1043.35
2017-01-28T02:39:37.528Z,1043.34
2017-01-28T02:40:37.475Z,1043.35
2017-01-28T02:41:37.458Z,1043.34
2017-01-28T02:42:37.437Z,1043.3
2017-01-28T02:43:37.420Z,1043.3
2017-01-28T02:44:37.402Z,1043.3
2017-01-28T02:45:37.384Z,1043.26
2017-01-28T02:46:37.365Z,1043.28
2017-01-28T02:47:37.346Z,1043.25
2017-01-28T02:48:37.329Z,1043.29
2017-01-28T02:49:37.309Z,1043.26
2017-01-28T02:50:37.294Z,1043.21
2017-01-28T02:51:37.273Z,1043.18
2017-01-28T02:52:37.259Z,1043.18
2017-01-28T02:53:37.236Z,1043.16
2017-01-28T02:54:37.220Z,1043.1
2017-01-28T02:55:37.201Z,1043.06
2017-01-28T02:56:37.183Z,1043.05
2017-01-28T02:57:37.165Z,1043.05
2017-01-28T02:58:37.146Z,1043.02
2017-01-28T02:59:37.128Z,1043.02
2017-01-28T03:00:37.109Z,1043.01
2017-01-28T03:01:37.091Z,1043.02
2017-01-28T03:02:37.076Z,1043.01
2017-01-28T03:03:37.056Z,1043.02
2017-01-28T03:04:37.037Z,1043.04
2017-01-28T03:05:37.017Z,1043.07
2017-01-28T03:06:37.009Z,1043.08
2017-01-28T03:07:36.981Z,1043.09
2017-01-28T03:08:36.964Z,1043.08
2017-01-28T03:09:36.946Z,1043.04
2017-01-28T03:10:36.929Z,1043.06
2017-01-28T03:11:36.907Z,1043.03
2017-01-28T03:12:36.889Z,1043.01
2017-01-28T03:13:36.870Z,1042.97
2017-01-28T03:14:36.854Z,1043.01
2017-01-28T03:15:36.834Z,1043.02
2017-01-28T03:16:36.816Z,1043.01
2017-01-28T03:17:36.798Z,1043.01
2017-01-28T03:18:36.782Z,1043.04
2017-01-28T03:19:36.759Z,1043
2017-01-28T03:20:36.743Z,1043.01
2017-01-28T03:21:36.724Z,1043.01
2017-01-28T03:22:36.705Z,1043.02
2017-01-28T03:23:36.687Z,1043.01
2017-01-28T03:24:36.669Z,1043.06
2017-01-28T03:25:36.651Z,1043.06
2017-01-28T03:26:36.631Z,1043.08
2017-01-28T03:27:36.614Z,1043.08
2017-01-28T03:28:36.594Z,1043.08
2017-01-28T03:29:36.576Z,1043.07
2017-01-28T03:30:36.559Z,1043.03
2017-01-28T03:31:36.546Z,1043.02
2017-01-28T03:32:36.521Z,1043.04
2017-01-28T03:33:36.501Z,1043.01
2017-01-28T03:34:36.486Z,1043.01
2017-01-28T03:35:36.467Z,1043.01
2017-01-28T03:36:36.449Z,1043.03
2017-01-28T03:37:36.429Z,1042.99
2017-01-28T03:38:36.411Z,1042.97
2017-01-28T03:39:36.395Z,1042.99
2017-01-28T03:40:36.374Z,1043.01
2017-01-28T03:41:36.356Z,1043
2017-01-28T03:42:36.341Z,1043.03
2017-01-28T03:43:36.320Z,1043.02
2017-01-28T03:44:36.300Z,1043.09
2017-01-28T03:45:36.283Z,1043.13
2017-01-28T03:46:36.264Z,1043.16
2017-01-28T03:47:36.248Z,1043.15
2017-01-28T03:48:36.226Z,1043.18
2017-01-28T03:49:36.209Z,1043.17
2017-01-28T03:50:36.190Z,1043.17
2017-01-28T03:51:36.171Z,1043.18
2017-01-28T03:52:36.153Z,1043.17
2017-01-28T03:53:36.136Z,1043.19
2017-01-28T03:54:36.117Z,1043.19
2017-01-28T03:55:36.097Z,1043.16
2017-01-28T03:56:36.080Z,1043.21
2017-01-28T03:57:36.063Z,1043.2
2017-01-28T03:58:36.048Z,1043.28
2017-01-28T03:59:36.023Z,1043.29
2017-01-28T04:00:36.005Z,1043.29
2017-01-28T04:01:35.988Z,1043.28
2017-01-28T04:02:35.968Z,1043.28
2017-01-28T04:03:35.949Z,1043.29
2017-01-28T04:04:35.931Z,1043.3
2017-01-28T04:05:35.914Z,1043.29
2017-01-28T04:06:35.894Z,1043.29
2017-01-28T04:07:35.877Z,1043.3
2017-01-28T04:08:35.858Z,1043.32
2017-01-28T04:09:35.839Z,1043.34
2017-01-28T04:10:35.820Z,1043.29
2017-01-28T04:11:35.802Z,1043.29
2017-01-28T04:12:35.786Z,1043.35
2017-01-28T04:13:35.764Z,1043.3
2017-01-28T04:14:35.746Z,1043.32
2017-01-28T04:15:35.727Z,1043.34
2017-01-28T04:16:35.709Z,1043.33
2017-01-28T04:17:35.693Z,1043.36
2017-01-28T04:18:35.699Z,1043.37
2017-01-28T04:19:35.653Z,1043.4
2017-01-28T04:20:35.637Z,1043.4
2017-01-28T04:21:35.616Z,1043.41
2017-01-28T04:22:35.598Z,1043.38
2017-01-28T04:23:35.586Z,1043.37
2017-01-28T04:24:35.564Z,1043.35
2017-01-28T04:25:35.542Z,1043.39
2017-01-28T04:26:35.524Z,1043.39
2017-01-28T04:27:35.505Z,1043.4
2017-01-28T04:28:35.485Z,1043.37
2017-01-28T04:29:35.469Z,1043.35
2017-01-28T04:30:35.450Z,1043.34
2017-01-28T04:31:35.431Z,1043.34
2017-01-28T04:32:35.414Z,1043.31
2017-01-28T04:33:35.395Z,1043.28
2017-01-28T04:34:35.377Z,1043.33
2017-01-28T04:35:35.357Z,1043.27
2017-01-28T04:36:35.341Z,1043.27
2017-01-28T04:37:35.321Z,1043.25
2017-01-28T04:38:35.302Z,1043.3
2017-01-28T04:39:35.283Z,1043.32
2017-01-28T04:40:35.267Z,1043.32
2017-01-28T04:41:35.246Z,1043.37
2017-01-28T04:42:35.228Z,1043.37
2017-01-28T04:43:35.208Z,1043.39
2017-01-28T04:44:35.190Z,1043.38
2017-01-28T04:45:35.171Z,1043.4
2017-01-28T04:46:35.152Z,1043.39
2017-01-28T04:47:35.134Z,1043.36
2017-01-28T04:48:35.116Z,1043.39
2017-01-28T04:49:35.097Z,1043.36
2017-01-28T04:50:35.079Z,1043.36
2017-01-28T04:51:35.059Z,1043.36
2017-01-28T04:52:35.041Z,1043.35
2017-01-28T04:53:35.022Z,1043.31
2017-01-28T04:54:35.003Z,1043.32
2017-01-28T04:55:34.985Z,1043.36
2017-01-28T04:56:34.966Z,1043.26
2017-01-28T04:57:34.947Z,1043.33
2017-01-28T04:58:34.928Z,1043.3
2017-01-28T04:59:34.911Z,1043.29
2017-01-28T05:00:34.893Z,1043.23
2017-01-28T05:01:34.873Z,1043.19
2017-01-28T05:02:34.854Z,1043.22
2017-01-28T05:03:34.836Z,1043.23
2017-01-28T05:04:34.817Z,1043.27
2017-01-28T05:05:34.799Z,1043.29
2017-01-28T05:06:34.780Z,1043.29
2017-01-28T05:07:34.761Z,1043.34
2017-01-28T05:08:34.741Z,1043.34
2017-01-28T05:09:34.730Z,1043.33
2017-01-28T05:10:34.706Z,1043.34
2017-01-28T05:11:34.685Z,1043.36
2017-01-28T05:12:34.669Z,1043.36
2017-01-28T05:13:34.649Z,1043.31
2017-01-28T05:14:34.631Z,1043.33
2017-01-28T05:15:34.612Z,1043.31
2017-01-28T05:16:34.594Z,1043.3
2017-01-28T05:17:34.574Z,1043.3
2017-01-28T05:18:34.556Z,1043.3
2017-01-28T05:19:34.537Z,1043.28
2017-01-28T05:20:34.520Z,1043.24
2017-01-28T05:21:34.499Z,1043.22
2017-01-28T05:22:34.482Z,1043.26
2017-01-28T05:23:34.463Z,1043.22
2017-01-28T05:24:34.469Z,1043.19
2017-01-28T05:25:34.426Z,1043.18
2017-01-28T05:26:34.411Z,1043.19
2017-01-28T05:27:34.388Z,1043.2
2017-01-28T05:28:34.370Z,1043.22
2017-01-28T05:29:34.352Z,1043.21
2017-01-28T05:30:34.332Z,1043.22
2017-01-28T05:31:34.314Z,1043.17
2017-01-28T05:32:34.296Z,1043.19
2017-01-28T05:33:34.276Z,1043.2
2017-01-28T05:34:34.259Z,1043.19
2017-01-28T05:35:34.240Z,1043.19
2017-01-28T05:36:34.221Z,1043.2
2017-01-28T05:37:34.201Z,1043.25
2017-01-28T05:38:34.184Z,1043.28
2017-01-28T05:39:34.165Z,1043.28
2017-01-28T05:40:34.147Z,1043.28
2017-01-28T05:41:34.128Z,1043.25
2017-01-28T05:42:34.109Z,1043.25
2017-01-28T05:43:34.091Z,1043.25
2017-01-28T05:44:34.072Z,1043.23
2017-01-28T05:45:34.053Z,1043.2
2017-01-28T05:46:34.034Z,1043.22
2017-01-28T05:47:34.017Z,1043.23
2017-01-28T05:48:33.998Z,1043.23
2017-01-28T05:49:33.979Z,1043.22
2017-01-28T05:50:33.965Z,1043.24
2017-01-28T05:51:33.943Z,1043.27
2017-01-28T05:52:33.923Z,1043.29
2017-01-28T05:53:33.904Z,1043.27
2017-01-28T05:54:33.885Z,1043.28
2017-01-28T05:55:33.868Z,1043.26
2017-01-28T05:56:33.848Z,1043.23
2017-01-28T05:57:33.830Z,1043.24
2017-01-28T05:58:33.812Z,1043.26
2017-01-28T05:59:33.794Z,1043.3
2017-01-28T06:00:33.773Z,1043.31
2017-01-28T06:01:33.756Z,1043.27
2017-01-28T06:02:33.737Z,1043.31
2017-01-28T06:03:33.718Z,1043.3
2017-01-28T06:04:33.699Z,1043.31
2017-01-28T06:05:33.681Z,1043.36
2017-01-28T06:06:33.663Z,1043.35
2017-01-28T06:07:33.668Z,1043.39
2017-01-28T06:08:33.629Z,1043.34
2017-01-28T06:09:33.607Z,1043.35
2017-01-28T06:10:33.591Z,1043.37
2017-01-28T06:11:33.569Z,1043.39
2017-01-28T06:12:33.552Z,1043.38
2017-01-28T06:13:33.532Z,1043.43
2017-01-28T06:14:33.518Z,1043.41
2017-01-28T06:15:33.496Z,1043.4
2017-01-28T06:16:33.476Z,1043.39
2017-01-28T06:17:33.457Z,1043.38
2017-01-28T06:18:33.439Z,1043.38
2017-01-28T06:19:33.421Z,1043.37
2017-01-28T06:20:33.401Z,1043.38
2017-01-28T06:21:33.382Z,1043.36
2017-01-28T06:22:33.364Z,1043.35
2017-01-28T06:23:33.345Z,1043.34
2017-01-28T06:24:33.326Z,1043.37
2017-01-28T06:25:33.307Z,1043.37
2017-01-28T06:26:33.290Z,1043.39
2017-01-28T06:27:33.271Z,1043.39
2017-01-28T06:28:33.251Z,1043.43
2017-01-28T06:29:33.233Z,1043.42
2017-01-28T06:30:33.215Z,1043.42
2017-01-28T06:31:33.195Z,1043.48
2017-01-28T06:32:33.176Z,1043.44
2017-01-28T06:33:33.158Z,1043.44
2017-01-28T06:34:33.138Z,1043.41
2017-01-28T06:35:33.122Z,1043.43
2017-01-28T06:36:33.102Z,1043.39
2017-01-28T06:37:33.083Z,1043.41
2017-01-28T06:38:33.065Z,1043.43
2017-01-28T06:39:33.044Z,1043.43
2017-01-28T06:40:33.027Z,1043.45
2017-01-28T06:41:33.009Z,1043.45
2017-01-28T06:42:32.990Z,1043.44
2017-01-28T06:43:32.970Z,1043.42
2017-01-28T06:44:32.951Z,1043.43
2017-01-28T06:45:32.957Z,1043.42
2017-01-28T06:46:32.915Z,1043.42
2017-01-28T06:47:32.894Z,1043.43
2017-01-28T06:48:32.876Z,1043.45
2017-01-28T06:49:32.858Z,1043.45
2017-01-28T06:50:32.839Z,1043.42
2017-01-28T06:51:32.821Z,1043.4
2017-01-28T06:52:32.802Z,1043.41
2017-01-28T06:53:32.783Z,1043.38
2017-01-28T06:54:32.765Z,1043.4
2017-01-28T06:55:32.745Z,1043.4
2017-01-28T06:56:32.726Z,1043.39
2017-01-28T06:57:32.708Z,1043.36
2017-01-28T06:58:32.689Z,1043.4
2017-01-28T06:59:32.671Z,1043.34
2017-01-28T07:00:32.651Z,1043.34
2017-01-28T07:01:32.634Z,1043.35
2017-01-28T07:02:32.613Z,1043.34
2017-01-28T07:03:32.596Z,1043.32
2017-01-28T07:04:32.580Z,1043.33
2017-01-28T07:05:32.557Z,1043.33
2017-01-28T07:06:32.540Z,1043.29
2017-01-28T07:07:32.521Z,1043.3
2017-01-28T07:08:32.502Z,1043.29
2017-01-28T07:09:32.482Z,1043.25
2017-01-28T07:10:32.464Z,1043.23
2017-01-28T07:11:32.445Z,1043.22
2017-01-28T07:12:32.427Z,1043.22
2017-01-28T07:13:32.411Z,1043.15
2017-01-28T07:14:32.392Z,1043.15
2017-01-28T07:15:32.372Z,1043.12
2017-01-28T07:16:32.352Z,1043.09
2017-01-28T07:17:32.685Z,1043.03
2017-01-28T07:18:32.315Z,1043
2017-01-28T07:19:32.298Z,1042.96
2017-01-28T07:20:32.278Z,1042.97
2017-01-28T07:21:32.260Z,1042.94
2017-01-28T07:22:32.242Z,1042.92
2017-01-28T07:23:32.222Z,1042.89
2017-01-28T07:24:32.204Z,1042.83
2017-01-28T07:25:32.187Z,1042.73
2017-01-28T07:26:32.168Z,1042.69
2017-01-28T07:27:32.148Z,1042.52
2017-01-28T07:28:32.130Z,1042.44
2017-01-28T07:29:32.112Z,1042.34
2017-01-28T07:30:32.095Z,1042.22
2017-01-28T07:31:32.074Z,1042.14
2017-01-28T07:32:32.060Z,1042.09
2017-01-28T07:33:32.039Z,1042.08
2017-01-28T07:34:32.020Z,1042.09
2017-01-28T07:35:32.003Z,1042.13
2017-01-28T07:36:31.984Z,1042.14
2017-01-28T07:37:31.967Z,1042.12
2017-01-28T07:38:31.948Z,1042.11
2017-01-28T07:39:31.930Z,1042.08
2017-01-28T07:40:31.912Z,1042.1
2017-01-28T07:41:31.894Z,1042.1
2017-01-28T07:42:31.878Z,1042.08
2017-01-28T07:43:31.860Z,1042.02
2017-01-28T07:44:31.841Z,1042
2017-01-28T07:45:31.823Z,1041.99
2017-01-28T07:46:31.806Z,1041.94
2017-01-28T07:47:31.788Z,1041.97
2017-01-28T07:48:31.771Z,1041.9
2017-01-28T07:49:31.751Z,1041.9
2017-01-28T07:50:31.735Z,1041.87
2017-01-28T07:51:31.715Z,1041.86
2017-01-28T07:52:31.698Z,1041.85
2017-01-28T07:53:31.681Z,1041.85
2017-01-28T07:54:31.664Z,1041.83
2017-01-28T07:55:31.647Z,1041.79
2017-01-28T07:56:31.632Z,1041.78
2017-01-28T07:57:31.610Z,1041.75
2017-01-28T07:58:31.592Z,1041.76
2017-01-28T07:59:31.575Z,1041.72
2017-01-28T08:00:31.557Z,1041.77
2017-01-28T08:01:31.539Z,1041.74
2017-01-28T08:02:31.521Z,1041.71
2017-01-28T08:03:31.504Z,1041.67
2017-01-28T08:04:31.486Z,1041.67
2017-01-28T08:05:31.468Z,1041.66
2017-01-28T08:06:31.451Z,1041.63
2017-01-28T08:07:31.433Z,1041.59
2017-01-28T08:08:31.416Z,1041.6
2017-01-28T08:09:31.398Z,1041.56
2017-01-28T08:10:31.381Z,1041.54
2017-01-28T08:11:31.363Z,1041.53
2017-01-28T08:12:31.346Z,1041.54
2017-01-28T08:13:31.329Z,1041.53
2017-01-28T08:14:31.312Z,1041.5
2017-01-28T08:15:31.293Z,1041.49
2017-01-28T08:16:31.277Z,1041.43
2017-01-28T08:17:31.262Z,1041.43
2017-01-28T08:18:31.241Z,1041.39
2017-01-28T08:19:31.223Z,1041.37
2017-01-28T08:20:31.209Z,1041.35
2017-01-28T08:21:31.189Z,1041.29
2017-01-28T08:22:31.173Z,1041.29
2017-01-28T08:23:31.154Z,1041.31
2017-01-28T08:24:31.137Z,1041.3
2017-01-28T08:25:31.119Z,1041.29
2017-01-28T08:26:31.102Z,1041.28
2017-01-28T08:27:31.085Z,1041.26
2017-01-28T08:28:31.067Z,1041.26
2017-01-28T08:29:31.050Z,1041.21
2017-01-28T08:30:31.032Z,1041.24
2017-01-28T08:31:31.015Z,1041.24
2017-01-28T08:32:30.999Z,1041.29
2017-01-28T08:33:30.980Z,1041.33
2017-01-28T08:34:30.963Z,1041.28
2017-01-28T08:35:30.946Z,1041.26
2017-01-28T08:36:30.929Z,1041.22
2017-01-28T08:37:30.913Z,1041.14
2017-01-28T08:38:30.897Z,1041.16
2017-01-28T08:39:30.879Z,1041.09
2017-01-28T08:40:30.862Z,1041.08
2017-01-28T08:41:30.845Z,1041.08
2017-01-28T08:42:30.827Z,1041.07
2017-01-28T08:43:30.809Z,1041.04
2017-01-28T08:44:30.793Z,1041
2017-01-28T08:45:30.776Z,1041.03
2017-01-28T08:46:30.759Z,1040.98
2017-01-28T08:47:30.740Z,1040.92
2017-01-28T08:48:30.724Z,1040.96
2017-01-28T08:49:30.706Z,1040.91
2017-01-28T08:50:30.722Z,1040.9
2017-01-28T08:51:30.672Z,1040.9
2017-01-28T08:52:30.657Z,1040.86
2017-01-28T08:53:30.640Z,1040.87
2017-01-28T08:54:30.623Z,1040.82
2017-01-28T08:55:30.604Z,1040.79
2017-01-28T08:56:30.588Z,1040.77
2017-01-28T08:57:30.572Z,1040.76
2017-01-28T08:58:30.560Z,1040.81
2017-01-28T08:59:30.537Z,1040.75
2017-01-28T09:00:30.521Z,1040.78
2017-01-28T09:01:30.505Z,1040.78
2017-01-28T09:02:30.488Z,1040.72
2017-01-28T09:03:30.470Z,1040.72
2017-01-28T09:04:30.454Z,1040.67
2017-01-28T09:05:30.437Z,1040.66
2017-01-28T09:06:30.421Z,1040.63
2017-01-28T09:07:30.403Z,1040.62
2017-01-28T09:08:30.386Z,1040.62
2017-01-28T09:09:30.370Z,1040.62
2017-01-28T09:10:30.354Z,1040.59
2017-01-28T09:11:30.337Z,1040.56
2017-01-28T09:12:30.321Z,1040.54
2017-01-28T09:13:30.303Z,1040.54
2017-01-28T09:14:30.287Z,1040.53
2017-01-28T09:15:30.270Z,1040.56
2017-01-28T09:16:30.256Z,1040.51
2017-01-28T09:17:30.238Z,1040.48
2017-01-28T09:18:30.221Z,1040.51
2017-01-28T09:19:30.206Z,1040.51
2017-01-28T09:20:30.189Z,1040.51
2017-01-28T09:21:30.173Z,1040.44
2017-01-28T09:22:30.156Z,1040.42
2017-01-28T09:23:30.140Z,1040.38
2017-01-28T09:24:30.123Z,1040.37
2017-01-28T09:25:30.107Z,1040.32
2017-01-28T09:26:30.090Z,1040.3
2017-01-28T09:27:30.074Z,1040.32
2017-01-28T09:28:30.057Z,1040.31
2017-01-28T09:29:30.041Z,1040.31
2017-01-28T09:30:30.024Z,1040.35
2017-01-28T09:31:30.008Z,1040.31
2017-01-28T09:32:29.991Z,1040.27
2017-01-28T09:33:29.975Z,1040.25
2017-01-28T09:34:29.959Z,1040.24
2017-01-28T09:35:29.942Z,1040.18
2017-01-28T09:36:29.927Z,1040.15
2017-01-28T09:37:29.910Z,1040.12
2017-01-28T09:38:29.894Z,1040.1
2017-01-28T09:39:29.877Z,1040.08
2017-01-28T09:40:29.861Z,1040.08
2017-01-28T09:41:29.854Z,1040.07
2017-01-28T09:42:29.828Z,1040
2017-01-28T09:43:29.812Z,1039.95
2017-01-28T09:44:29.797Z,1039.95
2017-01-28T09:45:29.781Z,1039.93
2017-01-28T09:46:29.765Z,1039.93
2017-01-28T09:47:29.748Z,1039.9
2017-01-28T09:48:29.732Z,1039.89
2017-01-28T09:49:29.716Z,1039.82
2017-01-28T09:50:29.700Z,1039.8
2017-01-28T09:51:29.684Z,1039.72
2017-01-28T09:52:29.669Z,1039.75
2017-01-28T09:53:29.655Z,1039.73
2017-01-28T09:54:29.637Z,1039.73
2017-01-28T09:55:29.621Z,1039.67
2017-01-28T09:56:29.604Z,1039.67
2017-01-28T09:57:29.589Z,1039.63
2017-01-28T09:58:29.572Z,1039.61
2017-01-28T09:59:29.556Z,1039.59
2017-01-28T10:00:29.541Z,1039.57
2017-01-28T10:01:29.523Z,1039.54
2017-01-28T10:02:29.509Z,1039.52
2017-01-28T10:03:29.493Z,1039.55
2017-01-28T10:04:29.475Z,1039.54
2017-01-28T10:05:29.460Z,1039.54
2017-01-28T10:06:29.446Z,1039.7
2017-01-28T10:07:29.428Z,1039.66
2017-01-28T10:08:29.414Z,1039.71
2017-01-28T10:09:29.397Z,1039.71
2017-01-28T10:10:29.381Z,1039.76
2017-01-28T10:11:29.369Z,1039.77
2017-01-28T10:12:29.350Z,1039.75
2017-01-28T10:13:29.337Z,1039.73
2017-01-28T10:14:29.318Z,1039.69
2017-01-28T10:15:29.301Z,1039.63
2017-01-28T10:16:29.285Z,1039.56
2017-01-28T10:17:29.270Z,1039.55
2017-01-28T10:18:29.254Z,1039.47
2017-01-28T10:19:29.237Z,1039.43
2017-01-28T10:20:29.221Z,1039.39
2017-01-28T10:21:29.206Z,1039.39
2017-01-28T10:22:29.189Z,1039.41
2017-01-28T10:23:29.175Z,1039.34
2017-01-28T10:24:29.158Z,1039.35
2017-01-28T10:25:29.142Z,1039.33
2017-01-28T10:26:29.126Z,1039.32
2017-01-28T10:27:29.110Z,1039.27
2017-01-28T10:28:29.096Z,1039.29
2017-01-28T10:29:29.079Z,1039.22
2017-01-28T10:30:29.062Z,1039.22
2017-01-28T10:31:29.048Z,1039.17
2017-01-28T10:32:29.033Z,1039.13
2017-01-28T10:33:29.015Z,1039.08
2017-01-28T10:34:29.000Z,1039.06
2017-01-28T10:35:28.984Z,1039.05
2017-01-28T10:36:28.968Z,1039.08
2017-01-28T10:37:28.953Z,1039.01
2017-01-28T10:38:28.936Z,1038.96
2017-01-28T10:39:28.922Z,1038.94
2017-01-28T10:40:28.905Z,1038.89
2017-01-28T10:41:28.889Z,1038.91
2017-01-28T10:42:28.873Z,1038.93
2017-01-28T10:43:28.857Z,1038.91
2017-01-28T10:44:28.842Z,1038.88
2017-01-28T10:45:28.826Z,1038.88
2017-01-28T10:46:28.811Z,1038.9
2017-01-28T10:47:28.795Z,1038.88
2017-01-28T10:48:28.778Z,1038.84
2017-01-28T10:49:28.766Z,1038.76
2017-01-28T10:50:28.747Z,1038.7
2017-01-28T10:51:28.733Z,1038.69
2017-01-28T10:52:28.718Z,1038.65
2017-01-28T10:53:28.707Z,1038.62
2017-01-28T10:54:28.687Z,1038.63
2017-01-28T10:55:28.670Z,1038.62
2017-01-28T10:56:28.655Z,1038.56
2017-01-28T10:57:28.640Z,1038.58
2017-01-28T10:58:28.625Z,1038.59
2017-01-28T10:59:28.609Z,1038.54
2017-01-28T11:00:28.594Z,1038.57
2017-01-28T11:01:28.579Z,1038.56
2017-01-28T11:02:28.562Z,1038.53
2017-01-28T11:03:28.549Z,1038.53
2017-01-28T11:04:28.531Z,1038.51
2017-01-28T11:05:28.517Z,1038.49
2017-01-28T11:06:28.501Z,1038.48
2017-01-28T11:07:28.485Z,1038.45
2017-01-28T11:08:28.471Z,1038.45
2017-01-28T11:09:28.455Z,1038.43
2017-01-28T11:10:28.439Z,1038.39
2017-01-28T11:11:28.424Z,1038.39
2017-01-28T11:12:28.408Z,1038.34
2017-01-28T11:13:28.393Z,1038.32
2017-01-28T11:14:28.378Z,1038.35
2017-01-28T11:15:28.363Z,1038.29
2017-01-28T11:16:28.348Z,1038.28
2017-01-28T11:17:28.333Z,1038.26
2017-01-28T11:18:28.316Z,1038.27
2017-01-28T11:19:28.301Z,1038.22
2017-01-28T11:20:28.287Z,1038.22
2017-01-28T11:21:28.270Z,1038.22
2017-01-28T11:22:28.256Z,1038.24
2017-01-28T11:23:28.240Z,1038.18
2017-01-28T11:24:28.225Z,1038.13
2017-01-28T11:25:28.211Z,1038.12
2017-01-28T11:26:28.196Z,1038.14
2017-01-28T11:27:28.180Z,1038.1
2017-01-28T11:28:28.165Z,1038.06
2017-01-28T11:29:28.150Z,1038.05
2017-01-28T11:30:28.135Z,1038.05
2017-01-28T11:31:28.124Z,1038
2017-01-28T11:32:28.105Z,1038.03
2017-01-28T11:33:28.089Z,1038.02
2017-01-28T11:34:28.074Z,1038.03
2017-01-28T11:35:28.059Z,1038
2017-01-28T11:36:28.044Z,1038.02
2017-01-28T11:37:28.031Z,1037.99
2017-01-28T11:38:28.017Z,1037.96
2017-01-28T11:39:27.998Z,1038.01
2017-01-28T11:40:27.987Z,1038
2017-01-28T11:41:27.969Z,1038
2017-01-28T11:42:27.954Z,1037.99
2017-01-28T11:43:27.938Z,1037.99
2017-01-28T11:44:27.924Z,1037.94
2017-01-28T11:45:27.911Z,1037.93
2017-01-28T11:46:27.892Z,1037.9
2017-01-28T11:47:27.878Z,1037.89
2017-01-28T11:48:27.870Z,1037.86
2017-01-28T11:49:27.849Z,1037.86
2017-01-28T11:50:27.834Z,1037.87
2017-01-28T11:51:27.820Z,1037.87
2017-01-28T11:52:27.805Z,1037.89
2017-01-28T11:53:27.790Z,1037.93
2017-01-28T11:54:27.778Z,1037.88
2017-01-28T11:55:27.759Z,1037.98
2017-01-28T11:56:27.744Z,1037.91
2017-01-28T11:57:27.730Z,1037.9
2017-01-28T11:58:27.714Z,1037.92
2017-01-28T11:59:27.700Z,1037.89
2017-01-28T12:00:27.684Z,1037.9
2017-01-28T12:01:27.668Z,1037.87
2017-01-28T12:02:27.659Z,1037.83
2017-01-28T12:03:27.639Z,1037.83
2017-01-28T12:04:27.625Z,1037.85
2017-01-28T12:05:27.609Z,1037.82
2017-01-28T12:06:27.594Z,1037.79
2017-01-28T12:07:27.582Z,1037.78
2017-01-28T12:08:27.564Z,1037.79